ADDS METAR Data INFO
IDs: Format: Raw Decoded Include TAF

Data at: 1935 UTC 16 Aug 2017

KGNC 161915Z AUTO 36013G16KT 10SM CLR 34/13 A3001 RMK AO2 T03350128
KGNC 161855Z AUTO 03006KT 10SM CLR 33/14 A3002 RMK AO2 T03250140
KGNC 161835Z AUTO 36009KT 10SM CLR 32/13 A3002 RMK AO2 T03210133
KGNC 161815Z AUTO 35004KT 10SM CLR 32/14 A3002 RMK AO2 T03150136
KGNC 161755Z AUTO 01005KT 10SM CLR 31/15 A3002 RMK AO2 T03110149 10312 20177
KGNC 161735Z AUTO 02007KT 340V040 10SM CLR 30/16 A3002 RMK AO2 T03040160
KGNC 161715Z AUTO 35006KT 10SM CLR 30/18 A3002 RMK AO2 T03010177
KGNC 161655Z AUTO 34003KT 10SM CLR 29/18 A3001 RMK AO2 T02890175
KGNC 161635Z AUTO 36003KT 10SM CLR 29/18 A3001 RMK AO2 T02890181
KGNC 161615Z AUTO 27004KT 10SM CLR 28/18 A3000 RMK AO2 T02800182
KGNC 161555Z AUTO 31006KT 10SM CLR 27/19 A3000 RMK AO2 T02730187
KGNC 161535Z AUTO 29007KT 10SM CLR 26/19 A3000 RMK AO2 T02640187
KGNC 161515Z AUTO 26004KT 10SM CLR 26/19 A3000 RMK AO2 T02560190
KGNC 161455Z AUTO 24004KT 10SM CLR 24/19 A3000 RMK AO2 T02440190
KGNC 161435Z AUTO 23006KT 10SM CLR 24/19 A3000 RMK AO2 T02380191
KGNC 161415Z AUTO 23006KT 10SM CLR 23/19 A3000 RMK AO2 T02300190
KGNC 161355Z AUTO 19006KT 10SM CLR 22/20 A3000 RMK AO2 T02200195
KGNC 161335Z AUTO 23003KT 10SM CLR 21/19 A2998 RMK AO2 T02060194
KGNC 161315Z AUTO 00000KT 10SM CLR 20/19 A2998 RMK AO2 T01960191
KGNC 161255Z AUTO 00000KT 10SM CLR 18/18 A2997 RMK AO2 T01830181
KGNC 161235Z AUTO 00000KT 10SM CLR 18/17 A2996 RMK AO2 T01770174
KGNC 161215Z AUTO 00000KT 10SM CLR 18/18 A2996 RMK AO2 T01810178
KGNC 161155Z AUTO 00000KT 10SM CLR 18/18 A2996 RMK AO2 T01810177 10224 20181
KGNC 161135Z AUTO 00000KT 10SM CLR 18/18 A2996 RMK AO2 T01820179
KGNC 161115Z AUTO 00000KT 10SM CLR 19/18 A2996 RMK AO2 T01850180
KGNC 161055Z AUTO 00000KT 10SM CLR 19/18 A2995 RMK AO2 T01860181
KGNC 161035Z AUTO 00000KT 10SM CLR 19/18 A2994 RMK AO2 T01880180
KGNC 161015Z AUTO 00000KT 10SM CLR 19/18 A2994 RMK AO2 T01900182
KGNC 160955Z AUTO 00000KT 10SM CLR 19/18 A2994 RMK AO2 T01920184
KGNC 160935Z AUTO 17003KT 10SM CLR 19/18 A2994 RMK AO2 T01900181
KGNC 160915Z AUTO 00000KT 10SM CLR 19/18 A2993 RMK AO2 T01930183
KGNC 160855Z AUTO 24003KT 10SM CLR 20/19 A2993 RMK AO2 T01960185
KGNC 160835Z AUTO 21005KT 10SM CLR 20/18 A2993 RMK AO2 T02000184
KGNC 160815Z AUTO 21005KT 10SM CLR 20/19 A2993 RMK AO2 T02000185
KGNC 160755Z AUTO 19005KT 10SM CLR 20/19 A2993 RMK AO2 T02020185
KGNC 160735Z AUTO 20006KT 10SM CLR 21/19 A2993 RMK AO2 T02050185
KGNC 160715Z AUTO 20006KT 10SM CLR 21/19 A2993 RMK AO2 T02100185
KGNC 160655Z AUTO 19007KT 10SM CLR 21/19 A2993 RMK AO2 T02120188
KGNC 160635Z AUTO 18008G14KT 10SM CLR 22/19 A2993 RMK AO2 T02170194
KGNC 160615Z AUTO 18009KT 10SM CLR 22/21 A2994 RMK AO2 T02190206
KGNC 160555Z AUTO 18006KT 10SM CLR 23/22 A2995 RMK AO2 T02250215 10285 20225 403010205
KGNC 160535Z AUTO 17006KT 10SM CLR 23/22 A2995 RMK AO2 T02280220
KGNC 160515Z AUTO 15007KT 10SM CLR 23/22 A2995 RMK AO2 T02300220
KGNC 160455Z AUTO 16009KT 10SM CLR 23/22 A2995 RMK AO2 T02300219
KGNC 160435Z AUTO 18007KT 10SM CLR 23/22 A2996 RMK AO2 T02300218
KGNC 160415Z AUTO 16006KT 10SM CLR 23/22 A2996 RMK AO2 T02300217
KGNC 160355Z AUTO 17006KT 10SM CLR 23/22 A2996 RMK AO2 T02320215
KGNC 160335Z AUTO 16007KT 10SM CLR 23/21 A2996 RMK AO2 T02340213
KGNC 160315Z AUTO 17008KT 10SM CLR 23/21 A2995 RMK AO2 T02340208
KGNC 160255Z AUTO 16006KT 10SM CLR 24/20 A2994 RMK AO2 T02350201
KGNC 160235Z AUTO 16004KT 10SM CLR 24/20 A2994 RMK AO2 T02390198
KGNC 160215Z AUTO 16006KT 10SM CLR 25/19 A2993 RMK AO2 T02450194
KGNC 160155Z AUTO 17006KT 10SM CLR 25/19 A2992 RMK AO2 T02480188
KGNC 160135Z AUTO 17008KT 10SM CLR 25/18 A2990 RMK AO2 T02520178
KGNC 160115Z AUTO 16010KT 10SM CLR 26/18 A2990 RMK AO2 T02630178
KGNC 160055Z AUTO 15010KT 10SM CLR 27/18 A2990 RMK AO2 T02740180
KGNC 160035Z AUTO 18007KT 10SM SCT120 28/18 A2990 RMK AO2 T02800178
KGNC 160015Z AUTO 16006KT 10SM SCT120 28/18 A2989 RMK AO2 T02830178
KGNC 152355Z AUTO 16004KT 10SM CLR 27/19 A2989 RMK AO2 T02710187 10301 20265
KGNC 152335Z AUTO 18008KT 10SM CLR 27/20 A2989 RMK AO2 T02680197
KGNC 152315Z AUTO 17011G17KT 10SM CLR 27/21 A2989 RMK AO2 T02740212
KGNC 152255Z AUTO 15012KT 10SM CLR 27/21 A2990 RMK AO2 T02660213
KGNC 152235Z AUTO 15013G18KT 10SM SCT120 27/21 A2990 RMK AO2 T02670211
KGNC 152215Z AUTO 15012KT 10SM SCT120 27/21 A2990 RMK AO2 T02700208
KGNC 152155Z AUTO 15014G17KT 10SM SCT120 28/21 A2991 RMK AO2 T02750206
KGNC 152135Z AUTO 15012G18KT 10SM CLR 28/21 A2991 RMK AO2 T02760205
KGNC 152115Z AUTO 16012G17KT 10SM SCT032 SCT041 SCT090 29/20 A2992 RMK AO2 T02860201
KGNC 152055Z AUTO 15009KT 10SM SCT032 SCT039 SCT090 29/20 A2992 RMK AO2 T02920200
KGNC 152035Z AUTO 15009G15KT 10SM BKN034 BKN043 29/20 A2992 RMK AO2 T02910200
KGNC 152015Z AUTO 15009G16KT 10SM SCT033 SCT039 SCT050 29/20 A2992 RMK AO2 T02940201
KGNC 151955Z AUTO 15008G14KT 10SM SCT028 SCT034 30/20 A2993 RMK AO2 T03000201
KGNC 151935Z AUTO 16011KT 10SM SCT028 SCT034 29/20 A2994 RMK AO2 T02910199
KGNC 151915Z AUTO 16011G15KT 10SM SCT028 29/20 A2994 RMK AO2 T02850199
KGNC 151855Z AUTO 16013G19KT 10SM SCT028 28/20 A2995 RMK AO2 T02810196
KGNC 151835Z AUTO 16015G19KT 10SM CLR 28/19 A2995 RMK AO2 T02800193
KGNC 151815Z AUTO 15012G18KT 10SM CLR 27/19 A2995 RMK AO2 T02680189
KGNC 151755Z AUTO 14013G18KT 10SM CLR 27/19 A2996 RMK AO2 T02660190 10266 20205
KGNC 151735Z AUTO 13013G16KT 10SM CLR 26/19 A2996 RMK AO2 T02600185
KGNC 151715Z AUTO 14014G18KT 10SM CLR 26/18 A2996 RMK AO2 T02590183
KGNC 151655Z AUTO 13015G20KT 10SM CLR 26/18 A2996 RMK AO2 T02570180
KGNC 151635Z AUTO 14015G21KT 10SM CLR 26/18 A2995 RMK AO2 T02570177
KGNC 151615Z AUTO 12015G20KT 10SM CLR 25/18 A2996 RMK AO2 T02500175
KGNC 151555Z AUTO 11014G18KT 10SM CLR 24/18 A2996 RMK AO2 T02440175
KGNC 151535Z AUTO 10014G20KT 10SM CLR 25/18 A2996 RMK AO2 T02500176
KGNC 151515Z AUTO 09017G20KT 10SM CLR 25/17 A2996 RMK AO2 T02450171
KGNC 151455Z AUTO 09012G17KT 10SM CLR 24/17 A2996 RMK AO2 T02360173
KGNC 151435Z AUTO 08010G15KT 10SM CLR 23/17 A2996 RMK AO2 T02320171
KGNC 151415Z AUTO 08012G17KT 10SM CLR 23/17 A2996 RMK AO2 T02300168
KGNC 151355Z AUTO 07011KT 10SM CLR 22/17 A2997 RMK AO2 T02230165
KGNC 151335Z AUTO 06012G19KT 10SM CLR 21/16 A2996 RMK AO2 T02130161
KGNC 151315Z AUTO 06014G20KT 10SM CLR 21/16 A2997 RMK AO2 T02070160
KGNC 151255Z AUTO 05015G21KT 10SM CLR 21/16 A2997 RMK AO2 T02050161
KGNC 151235Z AUTO 04012G21KT 10SM SCT055 SCT070 21/16 A2997 RMK AO2 T02050162
KGNC 151215Z AUTO 03013G17KT 10SM OVC055 22/19 A2996 RMK AO2 T02150187
KGNC 151155Z AUTO 03004KT 10SM BKN060 21/19 A2994 RMK AO2 T02100193 10232 20205
KGNC 151135Z AUTO 06004KT 10SM OVC060 21/20 A2993 RMK AO2 T02120196
KGNC 151115Z AUTO 06004KT 10SM BKN060 21/20 A2994 RMK AO2 T02070196
KGNC 151055Z AUTO 03007KT 10SM CLR 21/19 A2993 RMK AO2 T02050194
KGNC 151035Z AUTO 00000KT 10SM CLR 21/19 A2991 RMK AO2 T02090192
KGNC 151015Z AUTO 00000KT 10SM CLR 21/19 A2990 RMK AO2 T02100190
KGNC 150955Z AUTO 00000KT 10SM CLR 22/19 A2990 RMK AO2 T02150190
KGNC 150935Z AUTO 18003KT 10SM CLR 21/19 A2989 RMK AO2 T02140190
KGNC 150915Z AUTO 22005KT 10SM CLR 22/19 A2989 RMK AO2 T02210190
KGNC 150855Z AUTO 22005KT 10SM CLR 22/19 A2988 RMK AO2 T02180193
KGNC 150835Z AUTO 23005KT 10SM CLR 22/20 A2989 RMK AO2 T02200195
KGNC 150815Z AUTO 00000KT 10SM CLR 22/19 A2989 RMK AO2 T02200194
KGNC 150755Z AUTO 00000KT 10SM CLR 22/20 A2990 RMK AO2 T02220195